Manchester, VT (05254)

12:05 AM EDT on September 01, 2015 (GMT -0400)
Zoey's Deli Weather Station | | Change Station
CLOSE
Current Station
Personal Weather Station
Location: Manchester, VT
Elevation: 712 ft
Nearby Weather Stations

Elev 712 ft 43.17 °N, 73.05 °W | Updated 7 seconds ago

Clear
Clear
67.2 °F
Feels Like 67.2 °F
N
0.0
Wind Variable Wind from East
Gusts 2.0 mph

Today
High -- | Low -- °F
--% Chance of Precip.
Yesterday
High -- | Low -- °F
Precip. -- in
6:16 AM 7:27 PM
Waning Gibbous, 92% visible
Pressure 30.00 in
Visibility 10.0 miles
Clouds Clear
Dew Point 62 °F
Humidity 83%
Rainfall 0.00 in
Snow Depth Not available.
UV 0 out of 12
Pollen 9.70 out of 12
Air Quality Not available.
Flu Activity Not available.
METAR KDDH 010354Z AUTO 19005KT 10SM CLR 18/16 A3001 RMK AO2 SLP157 T01780161
Pressure 30.00 in
Visibility 10.0 miles
Clouds Clear
Dew Point 62 °F
Humidity 83%
Rainfall 0.00 in
Snow Depth Not available.
UV 0 out of 12
Pollen 9.70 out of 12
Air Quality Not available.
Flu Activity Not available.
METAR KDDH 010354Z AUTO 19005KT 10SM CLR 18/16 A3001 RMK AO2 SLP157 T01780161

10-Day Weather Forecast

×

Almanac

Astronomy

Sep. 01, 2015 Rise Set
Actual Time
Civil Twilight
Nautical Twilight
Astronomical Twilight
Moon
Length of Visible Light
Length of Day
Tomorrow will be .
, % of the Moon is Illuminated

Today's Extremes

State Highs State Lows

Community

WunderPhotos

Upload Photos

1,851,477 photos uploaded!

WunderBlogs® & News

Nearby

Air Quality

  Air Quality AQ Index Pollutant
Not available.

Snow Depth

Station Depth Elevation

Earthquake Activity

City Distance Mag. Time & Date
Minimum magnitude displayed is 2.5.

Coastal Water Temperatures

Place Temperature

Stations

Nearby Weather Stations

Station Location Temp. Windchill Dew Point Humidity Wind Precip. Elev Updated Type